sensor_id;sensor_type;location;lat;lon;timestamp;P1;durP1;ratioP1;P2;durP2;ratioP2
57856;SDS011;43683;48.650;9.290;2022-12-29T00:02:04;4.45;;;2.95;;
57856;SDS011;43683;48.650;9.290;2022-12-29T00:04:30;5.75;;;3.33;;
57856;SDS011;43683;48.650;9.290;2022-12-29T00:06:56;4.47;;;3.15;;
57856;SDS011;43683;48.650;9.290;2022-12-29T00:09:21;5.25;;;2.60;;
57856;SDS011;43683;48.650;9.290;2022-12-29T00:11:47;3.13;;;2.20;;
57856;SDS011;43683;48.650;9.290;2022-12-29T00:14:13;3.38;;;2.50;;
57856;SDS011;43683;48.650;9.290;2022-12-29T00:16:57;2.72;;;2.00;;
57856;SDS011;43683;48.650;9.290;2022-12-29T00:19:23;2.78;;;2.10;;
57856;SDS011;43683;48.650;9.290;2022-12-29T00:22:09;2.10;;;1.85;;
57856;SDS011;43683;48.650;9.290;2022-12-29T00:24:54;3.40;;;2.00;;
57856;SDS011;43683;48.650;9.290;2022-12-29T00:27:29;2.10;;;1.90;;
57856;SDS011;43683;48.650;9.290;2022-12-29T00:30:17;3.40;;;2.33;;
57856;SDS011;43683;48.650;9.290;2022-12-29T00:33:10;2.30;;;2.00;;
57856;SDS011;43683;48.650;9.290;2022-12-29T00:36:00;2.25;;;1.98;;
57856;SDS011;43683;48.650;9.290;2022-12-29T00:38:32;4.78;;;1.90;;
57856;SDS011;43683;48.650;9.290;2022-12-29T00:41:20;3.05;;;2.10;;
57856;SDS011;43683;48.650;9.290;2022-12-29T00:44:04;2.28;;;2.08;;
57856;SDS011;43683;48.650;9.290;2022-12-29T00:46:30;2.63;;;2.00;;
57856;SDS011;43683;48.650;9.290;2022-12-29T00:48:57;3.35;;;2.10;;
57856;SDS011;43683;48.650;9.290;2022-12-29T00:51:41;2.95;;;2.20;;
57856;SDS011;43683;48.650;9.290;2022-12-29T00:54:07;4.75;;;2.95;;
57856;SDS011;43683;48.650;9.290;2022-12-29T00:56:34;4.07;;;2.67;;
57856;SDS011;43683;48.650;9.290;2022-12-29T00:59:00;4.00;;;2.15;;
57856;SDS011;43683;48.650;9.290;2022-12-29T01:01:30;2.38;;;1.90;;
57856;SDS011;43683;48.650;9.290;2022-12-29T01:03:56;3.63;;;2.30;;
57856;SDS011;43683;48.650;9.290;2022-12-29T01:06:22;3.17;;;2.40;;
57856;SDS011;43683;48.650;9.290;2022-12-29T01:08:48;4.18;;;2.47;;
57856;SDS011;43683;48.650;9.290;2022-12-29T01:11:36;3.30;;;2.40;;
57856;SDS011;43683;48.650;9.290;2022-12-29T01:14:02;4.15;;;2.20;;
57856;SDS011;43683;48.650;9.290;2022-12-29T01:16:28;4.30;;;2.45;;
57856;SDS011;43683;48.650;9.290;2022-12-29T01:18:54;3.17;;;2.25;;
57856;SDS011;43683;48.650;9.290;2022-12-29T01:21:19;3.70;;;2.58;;
57856;SDS011;43683;48.650;9.290;2022-12-29T01:23:45;3.28;;;2.65;;
57856;SDS011;43683;48.650;9.290;2022-12-29T01:26:11;2.13;;;1.92;;
57856;SDS011;43683;48.650;9.290;2022-12-29T01:28:37;3.13;;;2.50;;
57856;SDS011;43683;48.650;9.290;2022-12-29T01:31:07;4.10;;;2.25;;
57856;SDS011;43683;48.650;9.290;2022-12-29T01:33:33;5.30;;;2.65;;
57856;SDS011;43683;48.650;9.290;2022-12-29T01:36:02;3.33;;;2.63;;
57856;SDS011;43683;48.650;9.290;2022-12-29T01:38:29;3.17;;;2.10;;
57856;SDS011;43683;48.650;9.290;2022-12-29T01:40:55;3.60;;;2.28;;
57856;SDS011;43683;48.650;9.290;2022-12-29T01:43:20;3.83;;;2.10;;
57856;SDS011;43683;48.650;9.290;2022-12-29T01:45:50;2.97;;;2.35;;
57856;SDS011;43683;48.650;9.290;2022-12-29T01:48:17;5.30;;;3.00;;
57856;SDS011;43683;48.650;9.290;2022-12-29T01:50:50;4.03;;;2.53;;
57856;SDS011;43683;48.650;9.290;2022-12-29T01:53:19;3.60;;;1.88;;
57856;SDS011;43683;48.650;9.290;2022-12-29T01:55:50;4.57;;;1.92;;
57856;SDS011;43683;48.650;9.290;2022-12-29T01:58:19;3.83;;;2.08;;
57856;SDS011;43683;48.650;9.290;2022-12-29T02:00:47;2.78;;;2.33;;
57856;SDS011;43683;48.650;9.290;2022-12-29T02:03:13;2.40;;;2.15;;
57856;SDS011;43683;48.650;9.290;2022-12-29T02:05:49;3.20;;;2.65;;
57856;SDS011;43683;48.650;9.290;2022-12-29T02:08:29;1.90;;;1.70;;
57856;SDS011;43683;48.650;9.290;2022-12-29T02:10:55;2.75;;;1.90;;
57856;SDS011;43683;48.650;9.290;2022-12-29T02:13:24;2.25;;;1.98;;
57856;SDS011;43683;48.650;9.290;2022-12-29T02:24:47;5.03;;;2.00;;
57856;SDS011;43683;48.650;9.290;2022-12-29T02:35:34;2.25;;;1.95;;
57856;SDS011;43683;48.650;9.290;2022-12-29T02:40:53;2.53;;;1.88;;
57856;SDS011;43683;48.650;9.290;2022-12-29T02:43:51;2.03;;;1.73;;
57856;SDS011;43683;48.650;9.290;2022-12-29T02:51:57;4.70;;;2.45;;
57856;SDS011;43683;48.650;9.290;2022-12-29T02:54:26;2.92;;;2.00;;
57856;SDS011;43683;48.650;9.290;2022-12-29T02:59:51;3.20;;;1.75;;
57856;SDS011;43683;48.650;9.290;2022-12-29T03:07:58;1.60;;;1.23;;
57856;SDS011;43683;48.650;9.290;2022-12-29T03:13:54;3.13;;;1.55;;
57856;SDS011;43683;48.650;9.290;2022-12-29T03:19:32;3.40;;;1.27;;
57856;SDS011;43683;48.650;9.290;2022-12-29T03:24:52;2.22;;;1.40;;
57856;SDS011;43683;48.650;9.290;2022-12-29T03:27:22;2.72;;;1.35;;
57856;SDS011;43683;48.650;9.290;2022-12-29T03:29:55;2.38;;;1.33;;
57856;SDS011;43683;48.650;9.290;2022-12-29T03:32:25;1.70;;;1.15;;
57856;SDS011;43683;48.650;9.290;2022-12-29T03:34:55;1.98;;;1.20;;
57856;SDS011;43683;48.650;9.290;2022-12-29T03:37:22;2.65;;;1.30;;
57856;SDS011;43683;48.650;9.290;2022-12-29T03:39:51;1.42;;;1.23;;
57856;SDS011;43683;48.650;9.290;2022-12-29T03:42:17;2.38;;;2.10;;
57856;SDS011;43683;48.650;9.290;2022-12-29T03:44:46;2.22;;;1.17;;
57856;SDS011;43683;48.650;9.290;2022-12-29T03:47:12;2.50;;;1.70;;
57856;SDS011;43683;48.650;9.290;2022-12-29T03:49:39;2.70;;;1.50;;
57856;SDS011;43683;48.650;9.290;2022-12-29T03:52:05;1.60;;;1.40;;
57856;SDS011;43683;48.650;9.290;2022-12-29T03:54:31;2.20;;;1.33;;
57856;SDS011;43683;48.650;9.290;2022-12-29T03:56:57;2.13;;;1.20;;
57856;SDS011;43683;48.650;9.290;2022-12-29T03:59:23;3.10;;;1.80;;
57856;SDS011;43683;48.650;9.290;2022-12-29T04:01:49;1.38;;;1.15;;
57856;SDS011;43683;48.650;9.290;2022-12-29T04:04:14;1.30;;;1.20;;
57856;SDS011;43683;48.650;9.290;2022-12-29T04:06:40;2.63;;;1.58;;
57856;SDS011;43683;48.650;9.290;2022-12-29T04:09:06;2.88;;;1.27;;
57856;SDS011;43683;48.650;9.290;2022-12-29T04:11:31;2.65;;;1.60;;
57856;SDS011;43683;48.650;9.290;2022-12-29T04:13:57;2.92;;;1.48;;
57856;SDS011;43683;48.650;9.290;2022-12-29T04:16:22;3.15;;;1.42;;
57856;SDS011;43683;48.650;9.290;2022-12-29T04:18:48;2.70;;;1.50;;
57856;SDS011;43683;48.650;9.290;2022-12-29T04:21:13;1.73;;;1.50;;
57856;SDS011;43683;48.650;9.290;2022-12-29T04:23:39;1.52;;;1.40;;
57856;SDS011;43683;48.650;9.290;2022-12-29T04:26:05;2.75;;;1.50;;
57856;SDS011;43683;48.650;9.290;2022-12-29T04:28:34;1.95;;;1.23;;
57856;SDS011;43683;48.650;9.290;2022-12-29T04:31:01;1.50;;;1.40;;
57856;SDS011;43683;48.650;9.290;2022-12-29T04:33:28;2.67;;;1.67;;
57856;SDS011;43683;48.650;9.290;2022-12-29T04:35:53;2.58;;;1.30;;
57856;SDS011;43683;48.650;9.290;2022-12-29T04:38:19;3.95;;;1.92;;
57856;SDS011;43683;48.650;9.290;2022-12-29T04:40:45;3.90;;;1.38;;
57856;SDS011;43683;48.650;9.290;2022-12-29T04:43:11;1.77;;;1.30;;
57856;SDS011;43683;48.650;9.290;2022-12-29T04:45:38;3.25;;;1.70;;
57856;SDS011;43683;48.650;9.290;2022-12-29T04:48:08;2.00;;;1.30;;
57856;SDS011;43683;48.650;9.290;2022-12-29T04:50:33;1.90;;;1.38;;
57856;SDS011;43683;48.650;9.290;2022-12-29T04:52:59;1.73;;;1.38;;
57856;SDS011;43683;48.650;9.290;2022-12-29T04:55:24;2.20;;;1.30;;
57856;SDS011;43683;48.650;9.290;2022-12-29T04:57:50;2.80;;;1.50;;
57856;SDS011;43683;48.650;9.290;2022-12-29T05:00:16;1.98;;;1.50;;
57856;SDS011;43683;48.650;9.290;2022-12-29T05:02:41;3.15;;;1.20;;
57856;SDS011;43683;48.650;9.290;2022-12-29T05:05:07;2.95;;;1.50;;
57856;SDS011;43683;48.650;9.290;2022-12-29T05:07:33;5.13;;;1.50;;
57856;SDS011;43683;48.650;9.290;2022-12-29T05:09:58;4.18;;;1.45;;
57856;SDS011;43683;48.650;9.290;2022-12-29T05:12:24;2.00;;;1.50;;
57856;SDS011;43683;48.650;9.290;2022-12-29T05:14:50;2.13;;;1.60;;
57856;SDS011;43683;48.650;9.290;2022-12-29T05:17:15;2.75;;;1.52;;
57856;SDS011;43683;48.650;9.290;2022-12-29T05:19:41;2.92;;;1.58;;
57856;SDS011;43683;48.650;9.290;2022-12-29T05:22:06;3.85;;;2.28;;
57856;SDS011;43683;48.650;9.290;2022-12-29T05:24:32;3.42;;;1.63;;
57856;SDS011;43683;48.650;9.290;2022-12-29T05:26:57;3.42;;;1.77;;
57856;SDS011;43683;48.650;9.290;2022-12-29T05:29:23;2.05;;;1.30;;
57856;SDS011;43683;48.650;9.290;2022-12-29T05:31:48;2.30;;;1.60;;
57856;SDS011;43683;48.650;9.290;2022-12-29T05:34:14;1.50;;;1.40;;
57856;SDS011;43683;48.650;9.290;2022-12-29T05:36:39;1.73;;;1.60;;
57856;SDS011;43683;48.650;9.290;2022-12-29T05:39:05;1.63;;;1.45;;
57856;SDS011;43683;48.650;9.290;2022-12-29T05:41:32;2.25;;;1.63;;
57856;SDS011;43683;48.650;9.290;2022-12-29T05:43:58;1.48;;;1.38;;
57856;SDS011;43683;48.650;9.290;2022-12-29T05:46:24;2.05;;;1.55;;
57856;SDS011;43683;48.650;9.290;2022-12-29T05:48:49;1.85;;;1.75;;
57856;SDS011;43683;48.650;9.290;2022-12-29T05:51:15;1.52;;;1.35;;
57856;SDS011;43683;48.650;9.290;2022-12-29T05:53:40;2.88;;;1.55;;
57856;SDS011;43683;48.650;9.290;2022-12-29T05:56:06;1.98;;;1.63;;
57856;SDS011;43683;48.650;9.290;2022-12-29T05:58:31;1.70;;;1.60;;
57856;SDS011;43683;48.650;9.290;2022-12-29T06:00:57;1.58;;;1.48;;
57856;SDS011;43683;48.650;9.290;2022-12-29T06:03:23;2.75;;;1.50;;
57856;SDS011;43683;48.650;9.290;2022-12-29T06:05:48;2.58;;;1.58;;
57856;SDS011;43683;48.650;9.290;2022-12-29T06:08:14;2.60;;;1.73;;
57856;SDS011;43683;48.650;9.290;2022-12-29T06:10:39;1.55;;;1.45;;
57856;SDS011;43683;48.650;9.290;2022-12-29T06:13:05;1.60;;;1.50;;
57856;SDS011;43683;48.650;9.290;2022-12-29T06:15:31;2.13;;;1.50;;
57856;SDS011;43683;48.650;9.290;2022-12-29T06:17:57;1.63;;;1.52;;
57856;SDS011;43683;48.650;9.290;2022-12-29T06:20:23;1.63;;;1.50;;
57856;SDS011;43683;48.650;9.290;2022-12-29T06:22:48;1.45;;;1.35;;
57856;SDS011;43683;48.650;9.290;2022-12-29T06:25:14;1.98;;;1.60;;
57856;SDS011;43683;48.650;9.290;2022-12-29T06:27:40;2.70;;;1.50;;
57856;SDS011;43683;48.650;9.290;2022-12-29T06:30:07;1.40;;;1.30;;
57856;SDS011;43683;48.650;9.290;2022-12-29T06:32:34;2.30;;;1.40;;
57856;SDS011;43683;48.650;9.290;2022-12-29T06:34:59;2.45;;;1.60;;
57856;SDS011;43683;48.650;9.290;2022-12-29T06:37:25;3.17;;;1.52;;
57856;SDS011;43683;48.650;9.290;2022-12-29T06:39:51;1.58;;;1.35;;
57856;SDS011;43683;48.650;9.290;2022-12-29T06:42:16;1.83;;;1.63;;
57856;SDS011;43683;48.650;9.290;2022-12-29T06:44:42;2.13;;;1.42;;
57856;SDS011;43683;48.650;9.290;2022-12-29T06:47:07;2.90;;;1.60;;
57856;SDS011;43683;48.650;9.290;2022-12-29T06:49:33;1.70;;;1.60;;
57856;SDS011;43683;48.650;9.290;2022-12-29T06:51:58;1.65;;;1.45;;
57856;SDS011;43683;48.650;9.290;2022-12-29T06:54:25;3.47;;;2.13;;
57856;SDS011;43683;48.650;9.290;2022-12-29T06:56:51;2.17;;;1.70;;
57856;SDS011;43683;48.650;9.290;2022-12-29T06:59:17;2.17;;;1.42;;
57856;SDS011;43683;48.650;9.290;2022-12-29T07:01:42;2.65;;;1.50;;
57856;SDS011;43683;48.650;9.290;2022-12-29T07:04:08;2.10;;;1.52;;
57856;SDS011;43683;48.650;9.290;2022-12-29T07:06:33;1.70;;;1.50;;
57856;SDS011;43683;48.650;9.290;2022-12-29T07:08:59;2.50;;;1.42;;
57856;SDS011;43683;48.650;9.290;2022-12-29T07:11:25;2.88;;;1.40;;
57856;SDS011;43683;48.650;9.290;2022-12-29T07:13:50;1.45;;;1.25;;
57856;SDS011;43683;48.650;9.290;2022-12-29T07:16:16;1.90;;;1.50;;
57856;SDS011;43683;48.650;9.290;2022-12-29T07:18:42;1.98;;;1.30;;
57856;SDS011;43683;48.650;9.290;2022-12-29T07:21:07;2.05;;;1.20;;
57856;SDS011;43683;48.650;9.290;2022-12-29T07:23:33;1.67;;;1.20;;
57856;SDS011;43683;48.650;9.290;2022-12-29T07:26:02;2.25;;;1.40;;
57856;SDS011;43683;48.650;9.290;2022-12-29T07:28:29;1.95;;;1.42;;
57856;SDS011;43683;48.650;9.290;2022-12-29T07:30:55;2.70;;;1.52;;
57856;SDS011;43683;48.650;9.290;2022-12-29T07:33:20;2.55;;;2.03;;
57856;SDS011;43683;48.650;9.290;2022-12-29T07:35:46;2.35;;;1.40;;
57856;SDS011;43683;48.650;9.290;2022-12-29T07:38:11;1.83;;;1.50;;
57856;SDS011;43683;48.650;9.290;2022-12-29T07:40:37;3.47;;;1.60;;
57856;SDS011;43683;48.650;9.290;2022-12-29T07:43:02;4.80;;;1.50;;
57856;SDS011;43683;48.650;9.290;2022-12-29T07:45:29;6.57;;;1.52;;
57856;SDS011;43683;48.650;9.290;2022-12-29T07:47:54;1.60;;;1.50;;
57856;SDS011;43683;48.650;9.290;2022-12-29T07:50:20;3.05;;;1.60;;
57856;SDS011;43683;48.650;9.290;2022-12-29T07:52:46;2.80;;;1.42;;
57856;SDS011;43683;48.650;9.290;2022-12-29T07:55:12;2.78;;;1.50;;
57856;SDS011;43683;48.650;9.290;2022-12-29T07:57:39;2.85;;;1.60;;
57856;SDS011;43683;48.650;9.290;2022-12-29T08:00:04;1.60;;;1.50;;
57856;SDS011;43683;48.650;9.290;2022-12-29T08:02:30;1.83;;;1.40;;
57856;SDS011;43683;48.650;9.290;2022-12-29T08:04:56;3.83;;;1.67;;
57856;SDS011;43683;48.650;9.290;2022-12-29T08:07:21;1.83;;;1.55;;
57856;SDS011;43683;48.650;9.290;2022-12-29T08:09:47;2.75;;;1.90;;
57856;SDS011;43683;48.650;9.290;2022-12-29T08:12:12;3.90;;;1.60;;
57856;SDS011;43683;48.650;9.290;2022-12-29T08:14:38;4.05;;;1.73;;
57856;SDS011;43683;48.650;9.290;2022-12-29T08:17:03;1.73;;;1.48;;
57856;SDS011;43683;48.650;9.290;2022-12-29T08:19:29;2.17;;;1.45;;
57856;SDS011;43683;48.650;9.290;2022-12-29T08:21:54;1.60;;;1.50;;
57856;SDS011;43683;48.650;9.290;2022-12-29T08:24:20;3.75;;;1.60;;
57856;SDS011;43683;48.650;9.290;2022-12-29T08:26:45;1.65;;;1.38;;
57856;SDS011;43683;48.650;9.290;2022-12-29T08:29:11;1.30;;;1.20;;
57856;SDS011;43683;48.650;9.290;2022-12-29T08:31:36;3.38;;;1.40;;
57856;SDS011;43683;48.650;9.290;2022-12-29T08:34:02;1.42;;;1.30;;
57856;SDS011;43683;48.650;9.290;2022-12-29T08:36:28;1.88;;;1.48;;
57856;SDS011;43683;48.650;9.290;2022-12-29T08:38:55;1.95;;;1.40;;
57856;SDS011;43683;48.650;9.290;2022-12-29T08:41:20;2.08;;;1.52;;
57856;SDS011;43683;48.650;9.290;2022-12-29T08:43:46;2.65;;;1.52;;
57856;SDS011;43683;48.650;9.290;2022-12-29T08:46:12;1.58;;;1.35;;
57856;SDS011;43683;48.650;9.290;2022-12-29T08:48:38;2.05;;;1.30;;
57856;SDS011;43683;48.650;9.290;2022-12-29T08:51:04;1.50;;;1.40;;
57856;SDS011;43683;48.650;9.290;2022-12-29T08:53:29;2.97;;;1.50;;
57856;SDS011;43683;48.650;9.290;2022-12-29T08:55:56;2.10;;;1.35;;
57856;SDS011;43683;48.650;9.290;2022-12-29T08:58:23;2.28;;;1.10;;
57856;SDS011;43683;48.650;9.290;2022-12-29T09:00:51;1.35;;;1.25;;
57856;SDS011;43683;48.650;9.290;2022-12-29T09:03:20;2.45;;;1.50;;
57856;SDS011;43683;48.650;9.290;2022-12-29T09:05:47;2.22;;;1.40;;
57856;SDS011;43683;48.650;9.290;2022-12-29T09:08:17;2.00;;;1.30;;
57856;SDS011;43683;48.650;9.290;2022-12-29T09:10:43;1.23;;;1.10;;
57856;SDS011;43683;48.650;9.290;2022-12-29T09:13:09;2.33;;;1.60;;
57856;SDS011;43683;48.650;9.290;2022-12-29T09:15:36;1.55;;;1.30;;
57856;SDS011;43683;48.650;9.290;2022-12-29T09:18:01;1.95;;;1.75;;
57856;SDS011;43683;48.650;9.290;2022-12-29T09:20:27;1.90;;;1.27;;
57856;SDS011;43683;48.650;9.290;2022-12-29T09:22:52;3.28;;;2.20;;
57856;SDS011;43683;48.650;9.290;2022-12-29T09:25:18;1.38;;;1.27;;
57856;SDS011;43683;48.650;9.290;2022-12-29T09:27:44;1.83;;;1.40;;
57856;SDS011;43683;48.650;9.290;2022-12-29T09:30:12;4.97;;;2.00;;
57856;SDS011;43683;48.650;9.290;2022-12-29T09:32:40;2.63;;;1.48;;
57856;SDS011;43683;48.650;9.290;2022-12-29T09:35:05;3.50;;;1.60;;
57856;SDS011;43683;48.650;9.290;2022-12-29T09:37:31;7.25;;;2.97;;
57856;SDS011;43683;48.650;9.290;2022-12-29T09:39:57;3.33;;;1.80;;
57856;SDS011;43683;48.650;9.290;2022-12-29T09:45:07;2.95;;;1.77;;
57856;SDS011;43683;48.650;9.290;2022-12-29T09:47:41;5.43;;;2.28;;
57856;SDS011;43683;48.650;9.290;2022-12-29T09:52:58;7.30;;;2.28;;
57856;SDS011;43683;48.650;9.290;2022-12-29T09:55:36;4.68;;;2.38;;
57856;SDS011;43683;48.650;9.290;2022-12-29T09:58:16;5.50;;;2.25;;
57856;SDS011;43683;48.650;9.290;2022-12-29T10:00:50;4.32;;;2.03;;
57856;SDS011;43683;48.650;9.290;2022-12-29T10:03:36;6.85;;;2.20;;
57856;SDS011;43683;48.650;9.290;2022-12-29T10:09:20;1.23;;;1.20;;
57856;SDS011;43683;48.650;9.290;2022-12-29T10:11:51;4.63;;;1.90;;
57856;SDS011;43683;48.650;9.290;2022-12-29T10:17:19;1.35;;;1.25;;
57856;SDS011;43683;48.650;9.290;2022-12-29T10:20:10;5.07;;;1.33;;
57856;SDS011;43683;48.650;9.290;2022-12-29T10:25:43;3.72;;;1.75;;
57856;SDS011;43683;48.650;9.290;2022-12-29T10:28:18;1.70;;;1.42;;
57856;SDS011;43683;48.650;9.290;2022-12-29T10:30:49;1.60;;;1.50;;
57856;SDS011;43683;48.650;9.290;2022-12-29T10:33:26;2.83;;;1.50;;
57856;SDS011;43683;48.650;9.290;2022-12-29T10:35:59;3.33;;;1.30;;
57856;SDS011;43683;48.650;9.290;2022-12-29T10:38:29;1.48;;;1.38;;
57856;SDS011;43683;48.650;9.290;2022-12-29T10:41:11;1.98;;;1.40;;
57856;SDS011;43683;48.650;9.290;2022-12-29T10:43:51;1.83;;;1.40;;
57856;SDS011;43683;48.650;9.290;2022-12-29T10:46:20;3.42;;;1.23;;
57856;SDS011;43683;48.650;9.290;2022-12-29T10:48:49;3.55;;;1.30;;
57856;SDS011;43683;48.650;9.290;2022-12-29T10:51:18;1.98;;;1.15;;
57856;SDS011;43683;48.650;9.290;2022-12-29T10:54:18;1.38;;;1.20;;
57856;SDS011;43683;48.650;9.290;2022-12-29T10:59:31;2.13;;;1.35;;
57856;SDS011;43683;48.650;9.290;2022-12-29T11:07:11;1.33;;;1.20;;
57856;SDS011;43683;48.650;9.290;2022-12-29T11:09:38;1.58;;;1.13;;
57856;SDS011;43683;48.650;9.290;2022-12-29T11:12:17;5.43;;;1.52;;
57856;SDS011;43683;48.650;9.290;2022-12-29T11:17:50;1.85;;;1.30;;
57856;SDS011;43683;48.650;9.290;2022-12-29T11:22:56;2.05;;;1.27;;
57856;SDS011;43683;48.650;9.290;2022-12-29T11:25:22;3.45;;;1.40;;
57856;SDS011;43683;48.650;9.290;2022-12-29T11:28:01;1.45;;;1.10;;
57856;SDS011;43683;48.650;9.290;2022-12-29T11:30:30;2.30;;;1.45;;
57856;SDS011;43683;48.650;9.290;2022-12-29T11:35:35;1.58;;;1.20;;
57856;SDS011;43683;48.650;9.290;2022-12-29T11:38:01;2.78;;;1.30;;
57856;SDS011;43683;48.650;9.290;2022-12-29T11:42:58;2.55;;;1.60;;
57856;SDS011;43683;48.650;9.290;2022-12-29T11:45:29;2.00;;;1.50;;
57856;SDS011;43683;48.650;9.290;2022-12-29T11:50:25;1.65;;;1.38;;
57856;SDS011;43683;48.650;9.290;2022-12-29T11:53:02;3.28;;;1.48;;
57856;SDS011;43683;48.650;9.290;2022-12-29T11:55:52;1.65;;;1.30;;
57856;SDS011;43683;48.650;9.290;2022-12-29T11:58:20;2.50;;;1.42;;
57856;SDS011;43683;48.650;9.290;2022-12-29T12:00:53;2.03;;;1.58;;
57856;SDS011;43683;48.650;9.290;2022-12-29T12:03:21;1.35;;;1.20;;
57856;SDS011;43683;48.650;9.290;2022-12-29T12:06:00;1.45;;;1.27;;
57856;SDS011;43683;48.650;9.290;2022-12-29T12:11:10;3.58;;;1.33;;
57856;SDS011;43683;48.650;9.290;2022-12-29T12:13:42;1.98;;;1.38;;
57856;SDS011;43683;48.650;9.290;2022-12-29T12:16:28;2.15;;;1.42;;
57856;SDS011;43683;48.650;9.290;2022-12-29T12:19:34;2.25;;;1.35;;
57856;SDS011;43683;48.650;9.290;2022-12-29T12:22:36;2.42;;;1.40;;
57856;SDS011;43683;48.650;9.290;2022-12-29T12:25:12;1.95;;;1.40;;
57856;SDS011;43683;48.650;9.290;2022-12-29T12:27:52;1.90;;;1.50;;
57856;SDS011;43683;48.650;9.290;2022-12-29T12:30:42;2.25;;;1.60;;
57856;SDS011;43683;48.650;9.290;2022-12-29T12:36:07;2.08;;;1.60;;
57856;SDS011;43683;48.650;9.290;2022-12-29T12:44:00;1.77;;;1.38;;
57856;SDS011;43683;48.650;9.290;2022-12-29T12:52:16;2.42;;;1.40;;
57856;SDS011;43683;48.650;9.290;2022-12-29T12:55:28;1.95;;;1.20;;
57856;SDS011;43683;48.650;9.290;2022-12-29T13:00:16;1.92;;;1.30;;
57856;SDS011;43683;48.650;9.290;2022-12-29T13:14:14;3.10;;;1.40;;
57856;SDS011;43683;48.650;9.290;2022-12-29T13:17:20;2.35;;;1.50;;
57856;SDS011;43683;48.650;9.290;2022-12-29T13:25:52;2.35;;;1.50;;
57856;SDS011;43683;48.650;9.290;2022-12-29T13:34:19;2.35;;;1.50;;
57856;SDS011;43683;48.650;9.290;2022-12-29T13:37:02;2.35;;;1.50;;
57856;SDS011;43683;48.650;9.290;2022-12-29T13:39:35;2.35;;;1.50;;
57856;SDS011;43683;48.650;9.290;2022-12-29T13:42:04;2.30;;;1.70;;
57856;SDS011;43683;48.650;9.290;2022-12-29T13:44:32;2.40;;;1.80;;
57856;SDS011;43683;48.650;9.290;2022-12-29T13:50:00;2.92;;;1.80;;
57856;SDS011;43683;48.650;9.290;2022-12-29T13:52:44;2.45;;;1.40;;
57856;SDS011;43683;48.650;9.290;2022-12-29T13:55:36;2.65;;;1.52;;
57856;SDS011;43683;48.650;9.290;2022-12-29T13:58:33;2.35;;;1.55;;
57856;SDS011;43683;48.650;9.290;2022-12-29T14:01:03;3.28;;;1.63;;
57856;SDS011;43683;48.650;9.290;2022-12-29T14:03:47;3.85;;;1.95;;
57856;SDS011;43683;48.650;9.290;2022-12-29T14:06:22;2.35;;;1.67;;
57856;SDS011;43683;48.650;9.290;2022-12-29T14:08:54;1.90;;;1.48;;
57856;SDS011;43683;48.650;9.290;2022-12-29T14:11:30;2.83;;;1.60;;
57856;SDS011;43683;48.650;9.290;2022-12-29T14:13:58;2.45;;;1.50;;
57856;SDS011;43683;48.650;9.290;2022-12-29T14:16:35;1.50;;;1.40;;
57856;SDS011;43683;48.650;9.290;2022-12-29T14:19:21;2.17;;;1.65;;
57856;SDS011;43683;48.650;9.290;2022-12-29T14:21:54;2.45;;;1.27;;
57856;SDS011;43683;48.650;9.290;2022-12-29T14:24:37;4.00;;;1.35;;
57856;SDS011;43683;48.650;9.290;2022-12-29T14:34:50;2.28;;;1.73;;
57856;SDS011;43683;48.650;9.290;2022-12-29T14:37:38;2.75;;;1.70;;
57856;SDS011;43683;48.650;9.290;2022-12-29T14:42:43;2.53;;;1.42;;
57856;SDS011;43683;48.650;9.290;2022-12-29T14:47:40;1.50;;;1.40;;
57856;SDS011;43683;48.650;9.290;2022-12-29T14:50:13;3.58;;;1.60;;
57856;SDS011;43683;48.650;9.290;2022-12-29T14:52:50;3.05;;;1.52;;
57856;SDS011;43683;48.650;9.290;2022-12-29T14:55:38;3.00;;;1.60;;
57856;SDS011;43683;48.650;9.290;2022-12-29T14:58:18;3.08;;;1.60;;
57856;SDS011;43683;48.650;9.290;2022-12-29T15:00:44;4.60;;;1.80;;
57856;SDS011;43683;48.650;9.290;2022-12-29T15:05:54;3.15;;;1.60;;
57856;SDS011;43683;48.650;9.290;2022-12-29T15:08:25;3.40;;;1.52;;
57856;SDS011;43683;48.650;9.290;2022-12-29T15:10:56;3.60;;;1.80;;
57856;SDS011;43683;48.650;9.290;2022-12-29T15:13:35;2.42;;;1.70;;
57856;SDS011;43683;48.650;9.290;2022-12-29T15:16:03;2.40;;;1.80;;
57856;SDS011;43683;48.650;9.290;2022-12-29T15:18:30;2.05;;;1.67;;
57856;SDS011;43683;48.650;9.290;2022-12-29T15:20:58;3.35;;;1.60;;
57856;SDS011;43683;48.650;9.290;2022-12-29T15:23:29;3.15;;;1.70;;
57856;SDS011;43683;48.650;9.290;2022-12-29T15:25:58;2.08;;;1.65;;
57856;SDS011;43683;48.650;9.290;2022-12-29T15:28:26;2.47;;;1.77;;
57856;SDS011;43683;48.650;9.290;2022-12-29T15:31:05;3.25;;;1.70;;
57856;SDS011;43683;48.650;9.290;2022-12-29T15:33:37;3.47;;;1.95;;
57856;SDS011;43683;48.650;9.290;2022-12-29T15:36:10;3.67;;;1.88;;
57856;SDS011;43683;48.650;9.290;2022-12-29T15:38:38;3.17;;;1.80;;
57856;SDS011;43683;48.650;9.290;2022-12-29T15:44:40;3.03;;;1.92;;
57856;SDS011;43683;48.650;9.290;2022-12-29T15:47:19;4.28;;;2.00;;
57856;SDS011;43683;48.650;9.290;2022-12-29T15:49:47;4.95;;;2.00;;
57856;SDS011;43683;48.650;9.290;2022-12-29T15:52:28;2.65;;;1.83;;
57856;SDS011;43683;48.650;9.290;2022-12-29T15:54:55;3.20;;;2.10;;
57856;SDS011;43683;48.650;9.290;2022-12-29T15:57:25;3.90;;;1.98;;
57856;SDS011;43683;48.650;9.290;2022-12-29T15:59:52;2.25;;;1.80;;
57856;SDS011;43683;48.650;9.290;2022-12-29T16:02:22;2.15;;;1.92;;
57856;SDS011;43683;48.650;9.290;2022-12-29T16:04:48;2.80;;;2.05;;
57856;SDS011;43683;48.650;9.290;2022-12-29T16:07:29;4.03;;;2.63;;
57856;SDS011;43683;48.650;9.290;2022-12-29T16:09:57;3.20;;;1.95;;
57856;SDS011;43683;48.650;9.290;2022-12-29T16:12:31;2.95;;;1.80;;
57856;SDS011;43683;48.650;9.290;2022-12-29T16:14:59;3.20;;;2.90;;
57856;SDS011;43683;48.650;9.290;2022-12-29T16:17:28;2.28;;;1.92;;
57856;SDS011;43683;48.650;9.290;2022-12-29T16:20:04;3.33;;;2.00;;
57856;SDS011;43683;48.650;9.290;2022-12-29T16:22:40;3.10;;;2.22;;
57856;SDS011;43683;48.650;9.290;2022-12-29T16:25:31;3.25;;;2.53;;
57856;SDS011;43683;48.650;9.290;2022-12-29T16:27:59;3.47;;;2.53;;
57856;SDS011;43683;48.650;9.290;2022-12-29T16:30:30;7.00;;;2.20;;
57856;SDS011;43683;48.650;9.290;2022-12-29T16:32:58;3.05;;;2.03;;
57856;SDS011;43683;48.650;9.290;2022-12-29T16:35:38;3.80;;;2.50;;
57856;SDS011;43683;48.650;9.290;2022-12-29T16:38:14;3.42;;;2.20;;
57856;SDS011;43683;48.650;9.290;2022-12-29T16:40:50;2.38;;;2.10;;
57856;SDS011;43683;48.650;9.290;2022-12-29T16:43:23;3.70;;;2.35;;
57856;SDS011;43683;48.650;9.290;2022-12-29T16:48:26;6.47;;;2.33;;
57856;SDS011;43683;48.650;9.290;2022-12-29T16:51:04;5.10;;;2.05;;
57856;SDS011;43683;48.650;9.290;2022-12-29T16:53:37;4.10;;;2.38;;
57856;SDS011;43683;48.650;9.290;2022-12-29T16:56:07;4.07;;;2.30;;
57856;SDS011;43683;48.650;9.290;2022-12-29T16:58:45;3.35;;;2.22;;
57856;SDS011;43683;48.650;9.290;2022-12-29T17:01:17;4.13;;;2.97;;
57856;SDS011;43683;48.650;9.290;2022-12-29T17:03:51;4.78;;;2.67;;
57856;SDS011;43683;48.650;9.290;2022-12-29T17:06:25;7.30;;;2.97;;
57856;SDS011;43683;48.650;9.290;2022-12-29T17:08:51;3.83;;;2.60;;
57856;SDS011;43683;48.650;9.290;2022-12-29T17:11:22;6.82;;;3.42;;
57856;SDS011;43683;48.650;9.290;2022-12-29T17:14:17;4.30;;;2.80;;
57856;SDS011;43683;48.650;9.290;2022-12-29T17:17:05;6.65;;;3.67;;
57856;SDS011;43683;48.650;9.290;2022-12-29T17:19:39;6.93;;;3.72;;
57856;SDS011;43683;48.650;9.290;2022-12-29T17:24:38;15.75;;;8.30;;
57856;SDS011;43683;48.650;9.290;2022-12-29T17:27:03;13.85;;;7.20;;
57856;SDS011;43683;48.650;9.290;2022-12-29T17:29:33;21.10;;;9.98;;
57856;SDS011;43683;48.650;9.290;2022-12-29T17:32:03;18.13;;;8.77;;
57856;SDS011;43683;48.650;9.290;2022-12-29T17:34:34;21.23;;;10.35;;
57856;SDS011;43683;48.650;9.290;2022-12-29T17:36:59;12.57;;;7.53;;